This is the latest recevied weather packets stored in our database for station/object NK0Z-13. If no packets are shown the sender has not sent any weather packets the latest 1 day(s).
| Time | Temp. | Humidity | Pressure | Rain* | Wind** | Luminosity | Snow |
|---|---|---|---|---|---|---|---|
| 1778011219 | 11.67° C | 66% | 1014.7 hPa | 0 mm | 1.34 m/s, 91° | 181 W/m² | - |
| 1778010618 | 12.22° C | 65% | 1014.6 hPa | 0 mm | 2.24 m/s, 60° | 283 W/m² | - |
| 1778010016 | 12.22° C | 65% | 1014.7 hPa | 0 mm | 4.47 m/s, 85° | 347 W/m² | - |
| 1778009410 | 12.22° C | 65% | 1014.9 hPa | 0 mm | 6.26 m/s, 85° | 394 W/m² | - |
| 1778008806 | 11.67° C | 69% | 1015 hPa | 0 mm | 1.34 m/s, 45° | 377 W/m² | - |
| 1778008202 | 12.22° C | 71% | 1014.5 hPa | 0 mm | 1.34 m/s, 51° | 516 W/m² | - |
| 1778007598 | 12.22° C | 71% | 1014.9 hPa | 0 mm | 3.13 m/s, 2° | 651 W/m² | - |
| 1778006997 | 11.67° C | 74% | 1014.8 hPa | 0 mm | 3.13 m/s, 98° | 516 W/m² | - |
| 1778006397 | 11.67° C | 74% | 1014.8 hPa | 0 mm | 1.79 m/s, 74° | 518 W/m² | - |
| 1778005796 | 11.11° C | 74% | 1014.8 hPa | 0 mm | 2.24 m/s, 52° | 610 W/m² | - |
| 1778005195 | 10° C | 78% | 1014.7 hPa | 0 mm | 1.79 m/s, 64° | 425 W/m² | - |
| 1778004596 | 9.44° C | 81% | 1014.8 hPa | 0 mm | 2.68 m/s, 66° | 203 W/m² | - |
| 1778003995 | 9.44° C | 81% | 1015.1 hPa | 0 mm | 1.79 m/s, 49° | 234 W/m² | - |
| 1778003394 | 9.44° C | 84% | 1014.8 hPa | 0 mm | 2.24 m/s, 358° | 238 W/m² | - |
| 1778002793 | 8.89° C | 89% | 1014.9 hPa | 0 mm | 1.79 m/s, 47° | 291 W/m² | - |
| 1778002192 | 8.33° C | 90% | 1015.2 hPa | 0.51 mm | 2.24 m/s, 110° | 285 W/m² | - |
| 1778001590 | 7.78° C | 89% | 1015.1 hPa | 1.27 mm | 2.68 m/s, 70° | 174 W/m² | - |
| 1778000989 | 7.78° C | 87% | 1014.8 hPa | 2.29 mm | 1.79 m/s, 36° | 170 W/m² | - |
| 1778000388 | 8.89° C | 83% | 1015.2 hPa | 1.27 mm | 4.92 m/s, 52° | 135 W/m² | - |
| 1777999785 | 10° C | 72% | 1015 hPa | 0 mm | 1.34 m/s, 46° | 176 W/m² | - |
| 1777999186 | 10.56° C | 68% | 1015 hPa | 0 mm | 3.13 m/s, 48° | 212 W/m² | - |
| 1777998583 | 10.56° C | 69% | 1015.2 hPa | 0 mm | 3.13 m/s, 15° | 221 W/m² | - |
| 1777997981 | 10.56° C | 67% | 1015.3 hPa | 0 mm | 4.47 m/s, 88° | 210 W/m² | - |
| 1777997382 | 10.56° C | 67% | 1015.3 hPa | 0 mm | 2.68 m/s, 108° | 141 W/m² | - |
| 1777996782 | 10.56° C | 66% | 1014.8 hPa | 0 mm | 6.26 m/s, 103° | 205 W/m² | - |
* Rain latest hour (hover to see other rain measurements)
** Current wind speed in m/s (hover to see current wind gust speed)